createdAt,value
2016-05-20T00:00:50.441Z,0
2016-05-20T00:02:50.884Z,0
2016-05-20T00:03:50.731Z,0
2016-05-20T00:04:50.748Z,0
2016-05-20T00:05:50.783Z,0
2016-05-20T00:06:50.348Z,0
2016-05-20T00:07:58.195Z,0
2016-05-20T00:08:51.197Z,0
2016-05-20T00:10:50.890Z,0
2016-05-20T00:11:50.252Z,0
2016-05-20T00:12:49.989Z,0
2016-05-20T00:13:50.741Z,0
2016-05-20T00:14:50.839Z,0
2016-05-20T00:15:51.028Z,0
2016-05-20T00:16:49.984Z,0
2016-05-20T00:17:50.519Z,0
2016-05-20T00:18:50.677Z,0
2016-05-20T00:19:50.571Z,0
2016-05-20T00:20:51.058Z,0
2016-05-20T00:21:50.982Z,0
2016-05-20T00:22:51.204Z,0
2016-05-20T00:23:50.925Z,0
2016-05-20T00:24:59.755Z,0
2016-05-20T00:25:50.946Z,0
2016-05-20T00:26:50.885Z,0
2016-05-20T00:27:50.435Z,0
2016-05-20T00:29:03.470Z,0
2016-05-20T00:30:00.926Z,0
2016-05-20T00:30:50.960Z,0
2016-05-20T00:31:50.837Z,0
2016-05-20T00:32:49.902Z,0
2016-05-20T00:33:50.952Z,0
2016-05-20T00:34:49.596Z,0
2016-05-20T00:35:49.739Z,0
2016-05-20T00:37:01.476Z,0
2016-05-20T00:37:50.900Z,0
2016-05-20T00:39:49.687Z,0
2016-05-20T00:41:50.880Z,0
2016-05-20T00:42:58.210Z,0
2016-05-20T00:43:58.166Z,0
2016-05-20T00:44:49.560Z,0
2016-05-20T00:45:49.672Z,0
2016-05-20T00:46:51.486Z,0
2016-05-20T00:47:59.880Z,0
2016-05-20T00:48:49.899Z,0
2016-05-20T00:49:50.480Z,0
2016-05-20T00:50:49.763Z,0
2016-05-20T00:51:49.797Z,0
2016-05-20T00:52:49.519Z,0
2016-05-20T00:54:50.758Z,0
2016-05-20T00:55:50.496Z,0
2016-05-20T00:57:59.219Z,0
2016-05-20T00:58:50.316Z,0
2016-05-20T00:59:50.804Z,0
2016-05-20T01:00:50.165Z,0
2016-05-20T01:01:49.918Z,0
2016-05-20T01:02:59.280Z,0
2016-05-20T01:03:59.565Z,0
2016-05-20T01:04:50.270Z,0
2016-05-20T01:05:49.695Z,0
2016-05-20T01:06:49.853Z,0
2016-05-20T01:07:52.012Z,0
2016-05-20T01:09:00.343Z,0
2016-05-20T01:10:00.001Z,0
2016-05-20T01:11:02.161Z,0
2016-05-20T01:11:50.053Z,0
2016-05-20T01:14:00.576Z,0
2016-05-20T01:14:50.093Z,0
2016-05-20T01:15:49.221Z,0
2016-05-20T01:16:58.724Z,0
2016-05-20T01:18:32.698Z,0
2016-05-20T01:19:54.810Z,0
2016-05-20T01:21:11.672Z,0
2016-05-20T01:22:21.411Z,0
2016-05-20T01:23:33.868Z,0
2016-05-20T01:24:39.651Z,0
2016-05-20T01:25:51.169Z,0
2016-05-20T01:26:06.451Z,0
2016-05-20T01:27:06.547Z,0
2016-05-20T01:29:07.538Z,0
2016-05-20T01:30:07.321Z,0
2016-05-20T01:31:16.640Z,0
2016-05-20T01:32:06.827Z,0
2016-05-20T01:34:07.551Z,0
2016-05-20T01:35:12.866Z,0
2016-05-20T01:36:07.556Z,0
2016-05-20T01:38:15.187Z,0
2016-05-20T01:39:27.332Z,0
2016-05-20T01:40:07.629Z,0
2016-05-20T01:41:15.116Z,0
2016-05-20T01:43:16.936Z,0
2016-05-20T01:45:07.346Z,0
2016-05-20T01:46:16.633Z,0
2016-05-20T01:47:08.180Z,0
2016-05-20T01:49:07.091Z,0
2016-05-20T01:50:15.516Z,0
2016-05-20T01:51:06.940Z,0
2016-05-20T01:52:06.802Z,0
2016-05-20T01:53:19.557Z,0
2016-05-20T01:54:06.776Z,0
2016-05-20T01:55:16.216Z,0
2016-05-20T01:56:15.125Z,0
2016-05-20T01:57:16.740Z,0
2016-05-20T01:58:06.912Z,0
2016-05-20T01:59:15.540Z,0
2016-05-20T02:00:12.371Z,0
2016-05-20T02:01:06.030Z,0
2016-05-20T02:02:06.501Z,0
2016-05-20T02:03:26.412Z,0
2016-05-20T02:04:07.037Z,0
2016-05-20T02:06:20.186Z,0
2016-05-20T02:07:05.951Z,0
2016-05-20T02:08:07.970Z,0
2016-05-20T02:09:16.582Z,0
2016-05-20T02:10:06.929Z,0
2016-05-20T02:11:07.120Z,0
2016-05-20T02:12:06.232Z,0
2016-05-20T02:14:06.206Z,0
2016-05-20T02:15:16.583Z,0
2016-05-20T02:16:07.366Z,0
2016-05-20T02:17:07.339Z,0
2016-05-20T02:18:06.684Z,0
2016-05-20T02:19:07.031Z,0
2016-05-20T02:20:07.034Z,0
2016-05-20T02:21:06.646Z,0
2016-05-20T02:22:11.367Z,0
2016-05-20T02:23:12.760Z,0
2016-05-20T02:25:06.453Z,0
2016-05-20T02:27:06.788Z,0
2016-05-20T02:28:07.665Z,0
2016-05-20T02:29:57.248Z,0
2016-05-20T02:31:10.719Z,0
2016-05-20T02:32:35.412Z,0
2016-05-20T02:33:57.118Z,0
2016-05-20T02:35:17.620Z,0
2016-05-20T02:36:28.985Z,0
2016-05-20T02:37:33.879Z,0
2016-05-20T02:38:21.757Z,0
2016-05-20T02:39:43.276Z,0
2016-05-20T02:40:54.153Z,0
2016-05-20T02:42:14.093Z,0
2016-05-20T02:43:23.270Z,0
2016-05-20T02:44:37.242Z,0
2016-05-20T02:45:32.322Z,0
2016-05-20T02:47:29.656Z,0
2016-05-20T02:48:50.268Z,0
2016-05-20T02:51:41.870Z,0
2016-05-20T02:53:05.123Z,0
2016-05-20T02:54:39.816Z,0
2016-05-20T02:55:48.725Z,0
2016-05-20T02:57:16.868Z,0
2016-05-20T02:58:39.232Z,0
2016-05-20T02:58:54.623Z,0
2016-05-20T03:00:02.547Z,0
2016-05-20T03:01:03.285Z,0
2016-05-20T03:02:55.775Z,0
2016-05-20T03:03:54.979Z,0
2016-05-20T03:04:54.749Z,0
2016-05-20T03:05:54.517Z,0
2016-05-20T03:06:55.551Z,0
2016-05-20T03:09:04.009Z,0
2016-05-20T03:09:54.778Z,0
2016-05-20T03:11:03.234Z,0
2016-05-20T03:12:02.704Z,0
2016-05-20T03:12:55.598Z,0
2016-05-20T03:13:55.600Z,0
2016-05-20T03:14:54.166Z,0
2016-05-20T03:15:55.373Z,0
2016-05-20T03:17:02.656Z,5
2016-05-20T03:17:54.111Z,5
2016-05-20T03:19:04.412Z,5
2016-05-20T03:19:54.336Z,5
2016-05-20T03:20:54.041Z,5
2016-05-20T03:22:58.188Z,5
2016-05-20T03:23:55.846Z,10
2016-05-20T03:25:04.208Z,10
2016-05-20T03:25:55.837Z,10
2016-05-20T03:27:03.260Z,10
2016-05-20T03:27:54.951Z,10
2016-05-20T03:29:05.219Z,10
2016-05-20T03:30:11.253Z,10
2016-05-20T03:30:57.194Z,10
2016-05-20T03:31:57.337Z,15
2016-05-20T03:32:57.902Z,15
2016-05-20T03:33:57.763Z,15
2016-05-20T03:34:57.673Z,20
2016-05-20T03:35:57.535Z,20
2016-05-20T03:37:10.740Z,25
2016-05-20T03:37:57.853Z,25
2016-05-20T03:38:57.606Z,25
2016-05-20T03:40:06.265Z,25
2016-05-20T03:40:57.829Z,30
2016-05-20T03:41:57.489Z,30
2016-05-20T03:42:57.117Z,35
2016-05-20T03:43:57.526Z,35
2016-05-20T03:44:56.934Z,35
2016-05-20T03:45:57.187Z,35
2016-05-20T03:46:57.111Z,40
2016-05-20T03:47:57.005Z,40
2016-05-20T03:48:55.632Z,40
2016-05-20T03:49:55.369Z,45
2016-05-20T03:50:54.606Z,45
2016-05-20T03:51:56.297Z,45
2016-05-20T03:52:55.534Z,50
2016-05-20T03:53:55.162Z,50
2016-05-20T03:54:54.805Z,55
2016-05-20T03:55:55.339Z,55
2016-05-20T03:56:54.483Z,60
2016-05-20T03:57:54.453Z,60
2016-05-20T03:58:55.441Z,65
2016-05-20T03:59:55.677Z,65
2016-05-20T04:00:55.274Z,70
2016-05-20T04:02:54.296Z,80
2016-05-20T04:03:54.266Z,80
2016-05-20T04:05:03.597Z,85
2016-05-20T04:06:12.163Z,85
2016-05-20T04:06:55.088Z,90
2016-05-20T04:07:55.184Z,95
2016-05-20T04:08:53.842Z,100
2016-05-20T04:09:54.799Z,105
2016-05-20T04:10:55.582Z,105
2016-05-20T04:11:55.429Z,110
2016-05-20T04:13:07.228Z,110
2016-05-20T04:13:55.434Z,110
2016-05-20T04:14:55.562Z,115
2016-05-20T04:15:55.346Z,115
2016-05-20T04:16:55.427Z,115
2016-05-20T04:17:54.476Z,110
2016-05-20T04:19:03.760Z,105
2016-05-20T04:19:55.263Z,105
2016-05-20T04:20:56.594Z,105
2016-05-20T04:21:55.737Z,105
2016-05-20T04:22:55.583Z,105
2016-05-20T04:23:54.539Z,100
2016-05-20T04:24:55.089Z,100
2016-05-20T04:25:54.763Z,100
2016-05-20T04:26:55.078Z,100
2016-05-20T04:27:54.658Z,100
2016-05-20T04:28:55.177Z,105
2016-05-20T04:29:54.837Z,105
2016-05-20T04:30:54.980Z,105
2016-05-20T04:31:55.249Z,110
2016-05-20T04:32:55.219Z,115
2016-05-20T04:33:55.113Z,130
2016-05-20T04:34:55.303Z,140
2016-05-20T04:35:55.134Z,150
2016-05-20T04:36:54.402Z,150
2016-05-20T04:37:54.060Z,150
2016-05-20T04:38:55.986Z,140
2016-05-20T04:40:03.255Z,135
2016-05-20T04:41:55.088Z,120
2016-05-20T04:42:55.340Z,115
2016-05-20T04:43:59.624Z,120
2016-05-20T04:44:54.893Z,120
2016-05-20T04:45:57.707Z,120
2016-05-20T04:46:54.835Z,120
2016-05-20T04:48:01.978Z,125
2016-05-20T04:48:55.075Z,125
2016-05-20T04:50:01.547Z,125
2016-05-20T04:52:08.084Z,130
2016-05-20T04:52:55.180Z,130
2016-05-20T04:53:55.339Z,130
2016-05-20T04:54:53.373Z,130
2016-05-20T04:55:54.719Z,135
2016-05-20T04:57:03.283Z,130
2016-05-20T04:57:56.193Z,130
2016-05-20T04:58:54.274Z,130
2016-05-20T05:00:14.120Z,135
2016-05-20T05:01:19.419Z,135
2016-05-20T05:01:54.923Z,135
2016-05-20T05:02:55.815Z,135
2016-05-20T05:03:55.427Z,140
2016-05-20T05:04:53.963Z,140
2016-05-20T05:05:53.933Z,140
2016-05-20T05:06:53.889Z,145
2016-05-20T05:07:54.860Z,145
2016-05-20T05:08:54.644Z,145
2016-05-20T05:10:04.882Z,145
2016-05-20T05:10:53.868Z,150
2016-05-20T05:11:53.621Z,150
2016-05-20T05:12:56.311Z,150
2016-05-20T05:13:54.470Z,155
2016-05-20T05:14:53.332Z,155
2016-05-20T05:15:53.648Z,160
2016-05-20T05:16:53.729Z,165
2016-05-20T05:17:53.903Z,170
2016-05-20T05:19:01.703Z,175
2016-05-20T05:19:54.565Z,180
2016-05-20T05:20:53.740Z,185
2016-05-20T05:21:53.789Z,190
2016-05-20T05:22:54.635Z,195
2016-05-20T05:23:54.717Z,205
2016-05-20T05:24:54.781Z,215
2016-05-20T05:26:05.752Z,235
2016-05-20T05:26:53.974Z,260
2016-05-20T05:28:17.899Z,295
2016-05-20T05:28:54.464Z,300
2016-05-20T05:29:53.483Z,295
2016-05-20T05:30:55.532Z,280
2016-05-20T05:31:54.081Z,265
2016-05-20T05:32:54.897Z,255
2016-05-20T05:34:07.400Z,245
